createdAt,value
2018-10-02T00:00:05.933Z,7.50
2018-10-02T00:00:40.063Z,7.50
2018-10-02T00:01:14.559Z,7.50
2018-10-02T00:01:48.673Z,7.50
2018-10-02T00:02:22.943Z,7.50
2018-10-02T00:02:57.513Z,7.50
2018-10-02T00:03:31.627Z,7.50
2018-10-02T00:04:06.637Z,7.50
2018-10-02T00:04:40.770Z,7.50
2018-10-02T00:05:14.907Z,7.50
2018-10-02T00:05:49.354Z,7.50
2018-10-02T00:06:23.856Z,7.50
2018-10-02T00:06:57.994Z,7.60
2018-10-02T00:07:32.457Z,7.60
2018-10-02T00:08:06.684Z,7.60
2018-10-02T00:08:41.159Z,7.60
2018-10-02T00:09:15.310Z,7.70
2018-10-02T00:09:49.453Z,7.70
2018-10-02T00:10:24.218Z,7.70
2018-10-02T00:11:03.667Z,7.70
2018-10-02T00:11:43.223Z,7.70
2018-10-02T00:12:22.810Z,7.70
2018-10-02T00:13:02.405Z,7.70
2018-10-02T00:13:41.918Z,7.80
2018-10-02T00:14:21.433Z,7.80
2018-10-02T00:14:55.571Z,7.80
2018-10-02T00:15:29.670Z,7.80
2018-10-02T00:16:04.146Z,7.80
2018-10-02T00:16:38.270Z,7.90
2018-10-02T00:17:12.378Z,7.90
2018-10-02T00:17:46.512Z,7.90
2018-10-02T00:18:20.668Z,7.90
2018-10-02T00:18:55.102Z,7.90
2018-10-02T00:19:29.257Z,7.90
2018-10-02T00:20:03.421Z,7.90
2018-10-02T00:20:37.558Z,7.90
2018-10-02T00:21:11.699Z,7.90
2018-10-02T00:21:45.795Z,7.80
2018-10-02T00:22:19.943Z,7.80
2018-10-02T00:22:54.057Z,7.80
2018-10-02T00:23:28.200Z,7.80
2018-10-02T00:24:02.325Z,7.80
2018-10-02T00:24:36.468Z,7.80
2018-10-02T00:25:10.947Z,7.80
2018-10-02T00:25:45.377Z,7.70
2018-10-02T00:26:19.513Z,7.70
2018-10-02T00:26:53.610Z,7.70
2018-10-02T00:27:27.754Z,7.70
2018-10-02T00:28:02.180Z,7.70
2018-10-02T00:28:36.340Z,7.70
2018-10-02T00:29:10.767Z,7.70
2018-10-02T00:29:45.243Z,7.70
2018-10-02T00:30:19.354Z,7.70
2018-10-02T00:30:53.474Z,7.70
2018-10-02T00:31:27.933Z,7.70
2018-10-02T00:32:02.417Z,7.70
2018-10-02T00:32:36.586Z,7.70
2018-10-02T00:33:10.720Z,7.70
2018-10-02T00:33:44.850Z,7.70
2018-10-02T00:34:19.057Z,7.70
2018-10-02T00:34:53.212Z,7.70
2018-10-02T00:35:27.375Z,7.70
2018-10-02T00:36:01.490Z,7.70
2018-10-02T00:36:35.924Z,7.70
2018-10-02T00:37:10.431Z,7.70
2018-10-02T00:37:44.844Z,7.70
2018-10-02T00:38:18.946Z,7.70
2018-10-02T00:38:53.424Z,7.70
2018-10-02T00:39:27.536Z,7.70
2018-10-02T00:40:01.712Z,7.70
2018-10-02T00:40:35.868Z,7.70
2018-10-02T00:41:10.420Z,7.70
2018-10-02T00:41:44.543Z,7.70
2018-10-02T00:42:25.628Z,7.70
2018-10-02T00:43:00.087Z,7.70
2018-10-02T00:43:34.232Z,7.70
2018-10-02T00:44:09.050Z,7.70
2018-10-02T00:44:43.186Z,7.70
2018-10-02T00:45:17.350Z,7.70
2018-10-02T00:45:51.518Z,7.70
2018-10-02T00:46:25.666Z,7.70
2018-10-02T00:47:00.128Z,7.70
2018-10-02T00:47:34.600Z,7.70
2018-10-02T00:48:09.195Z,7.70
2018-10-02T00:48:43.315Z,7.70
2018-10-02T00:49:17.771Z,7.70
2018-10-02T00:49:51.950Z,7.70
2018-10-02T00:50:26.150Z,7.70
2018-10-02T00:51:00.286Z,7.70
2018-10-02T00:51:34.411Z,7.70
2018-10-02T00:52:08.626Z,7.80
2018-10-02T00:52:42.730Z,7.80
2018-10-02T00:53:16.852Z,7.80
2018-10-02T00:53:51.322Z,7.80
2018-10-02T00:54:25.884Z,7.80
2018-10-02T00:55:00.014Z,7.90
2018-10-02T00:55:34.188Z,7.90
2018-10-02T00:56:08.950Z,7.90
2018-10-02T00:56:43.430Z,7.90
2018-10-02T00:57:17.556Z,7.90
2018-10-02T00:57:51.706Z,7.90
2018-10-02T00:58:25.876Z,7.90
2018-10-02T00:59:00.034Z,7.90
2018-10-02T00:59:34.541Z,7.90
2018-10-02T01:00:08.703Z,7.90
2018-10-02T01:00:42.821Z,8.00
2018-10-02T01:01:16.948Z,8.00
2018-10-02T01:01:51.491Z,8.00
2018-10-02T01:02:26.310Z,8.00
2018-10-02T01:03:00.799Z,8.00
2018-10-02T01:03:35.016Z,8.00
2018-10-02T01:04:09.152Z,8.00
2018-10-02T01:04:43.628Z,8.00
2018-10-02T01:05:17.738Z,8.00
2018-10-02T01:05:51.905Z,8.00
2018-10-02T01:06:26.133Z,8.00
2018-10-02T01:07:00.594Z,8.00
2018-10-02T01:07:34.716Z,8.00
2018-10-02T01:08:08.832Z,8.00
2018-10-02T01:08:43.194Z,8.00
2018-10-02T01:09:17.339Z,8.00
2018-10-02T01:09:51.470Z,8.00
2018-10-02T01:10:25.670Z,8.10
2018-10-02T01:10:59.862Z,8.10
2018-10-02T01:11:34.367Z,8.10
2018-10-02T01:12:08.981Z,8.10
2018-10-02T01:12:43.132Z,8.10
2018-10-02T01:13:17.246Z,8.10
2018-10-02T01:13:51.406Z,8.10
2018-10-02T01:14:25.549Z,8.10
2018-10-02T01:14:59.667Z,8.10
2018-10-02T01:15:33.792Z,8.10
2018-10-02T01:16:07.993Z,8.10
2018-10-02T01:16:42.178Z,8.10
2018-10-02T01:17:16.313Z,8.20
2018-10-02T01:17:50.814Z,8.20
2018-10-02T01:18:25.212Z,8.20
2018-10-02T01:18:59.350Z,8.20
2018-10-02T01:19:33.808Z,8.20
2018-10-02T01:20:08.587Z,8.20
2018-10-02T01:20:42.755Z,8.20
2018-10-02T01:21:16.906Z,8.30
2018-10-02T01:21:51.695Z,8.30
2018-10-02T01:22:25.905Z,8.30
2018-10-02T01:23:00.014Z,8.30
2018-10-02T01:23:34.103Z,8.30
2018-10-02T01:24:08.251Z,8.30
2018-10-02T01:24:42.735Z,8.30
2018-10-02T01:25:16.849Z,8.30
2018-10-02T01:25:50.977Z,8.30
2018-10-02T01:26:25.133Z,8.30
2018-10-02T01:26:59.708Z,8.30
2018-10-02T01:27:33.797Z,8.30
2018-10-02T01:28:07.942Z,8.30
2018-10-02T01:28:42.046Z,8.30
2018-10-02T01:29:16.486Z,8.30
2018-10-02T01:29:50.871Z,8.30
2018-10-02T01:30:25.327Z,8.30
2018-10-02T01:30:59.428Z,8.30
2018-10-02T01:31:33.602Z,8.30
2018-10-02T01:32:07.715Z,8.20
2018-10-02T01:32:42.151Z,8.20
2018-10-02T01:33:16.266Z,8.20
2018-10-02T01:33:50.406Z,8.20
2018-10-02T01:34:24.495Z,8.20
2018-10-02T01:34:58.592Z,8.20
2018-10-02T01:35:33.043Z,8.20
2018-10-02T01:36:08.080Z,8.20
2018-10-02T01:36:42.238Z,8.10
2018-10-02T01:37:16.666Z,8.10
2018-10-02T01:37:51.118Z,8.10
2018-10-02T01:38:25.235Z,8.10
2018-10-02T01:38:59.351Z,8.10
2018-10-02T01:39:33.496Z,8.10
2018-10-02T01:40:07.622Z,8.10
2018-10-02T01:40:41.741Z,8.10
2018-10-02T01:41:16.184Z,8.10
2018-10-02T01:41:50.699Z,8.10
2018-10-02T01:42:24.818Z,8.00
2018-10-02T01:42:59.117Z,8.00
2018-10-02T01:43:33.566Z,8.00
2018-10-02T01:44:08.031Z,8.00
2018-10-02T01:44:42.151Z,7.90
2018-10-02T01:45:16.564Z,7.90
2018-10-02T01:45:50.694Z,7.90
2018-10-02T01:46:24.794Z,7.90
2018-10-02T01:46:58.942Z,7.80
2018-10-02T01:47:33.110Z,7.80
2018-10-02T01:48:07.570Z,7.80
2018-10-02T01:48:42.016Z,7.80
2018-10-02T01:49:16.153Z,7.80
2018-10-02T01:49:50.606Z,7.80
2018-10-02T01:50:24.713Z,7.80
2018-10-02T01:50:59.170Z,7.80
2018-10-02T01:51:33.313Z,7.80
2018-10-02T01:52:07.470Z,7.80
2018-10-02T01:52:41.933Z,7.80
2018-10-02T01:53:16.042Z,7.80
2018-10-02T01:53:50.182Z,7.80
2018-10-02T01:54:24.304Z,7.80
2018-10-02T01:54:58.460Z,7.80
2018-10-02T01:55:32.664Z,7.80
2018-10-02T01:56:06.815Z,7.80
2018-10-02T01:56:40.924Z,7.80
2018-10-02T01:57:15.096Z,7.80
2018-10-02T01:57:49.214Z,7.80
2018-10-02T01:58:23.364Z,7.80
2018-10-02T01:58:57.485Z,7.80
2018-10-02T01:59:31.649Z,7.80
2018-10-02T02:00:05.833Z,7.80
2018-10-02T02:00:39.956Z,7.80
2018-10-02T02:01:14.395Z,7.80
2018-10-02T02:01:48.900Z,7.80
2018-10-02T02:02:23.066Z,7.80
2018-10-02T02:02:57.201Z,7.80
2018-10-02T02:03:31.350Z,7.80
2018-10-02T02:04:05.491Z,7.80
2018-10-02T02:04:39.633Z,7.80
2018-10-02T02:05:14.074Z,7.80
2018-10-02T02:05:48.572Z,7.80
2018-10-02T02:06:22.712Z,7.70
2018-10-02T02:06:56.857Z,7.70
2018-10-02T02:07:31.070Z,7.70
2018-10-02T02:08:06.113Z,7.70
2018-10-02T02:08:40.415Z,7.70
2018-10-02T02:09:14.538Z,7.80
2018-10-02T02:09:48.712Z,7.80
2018-10-02T02:10:23.138Z,7.80
2018-10-02T02:10:57.602Z,7.80
2018-10-02T02:11:31.713Z,7.80
2018-10-02T02:12:06.166Z,7.80
2018-10-02T02:12:40.336Z,7.80
2018-10-02T02:13:14.470Z,7.80
2018-10-02T02:13:48.610Z,7.80
2018-10-02T02:14:22.736Z,7.90
2018-10-02T02:14:56.904Z,7.80
2018-10-02T02:15:31.036Z,7.90
2018-10-02T02:16:05.178Z,7.90
2018-10-02T02:16:39.331Z,7.90
2018-10-02T02:17:13.490Z,7.90
2018-10-02T02:17:48.004Z,7.80
2018-10-02T02:18:22.134Z,7.80
2018-10-02T02:18:56.606Z,7.80
2018-10-02T02:19:30.742Z,7.80
2018-10-02T02:20:04.906Z,7.80
2018-10-02T02:20:39.028Z,7.80
2018-10-02T02:21:13.164Z,7.80
2018-10-02T02:21:47.638Z,7.80
2018-10-02T02:22:21.786Z,7.80
2018-10-02T02:22:55.962Z,7.80
2018-10-02T02:23:30.120Z,7.80
2018-10-02T02:24:04.569Z,7.80
2018-10-02T02:24:45.470Z,7.80
2018-10-02T02:25:19.605Z,7.80
2018-10-02T02:25:53.758Z,7.80
2018-10-02T02:26:27.858Z,7.80
2018-10-02T02:27:02.057Z,7.80
2018-10-02T02:27:36.206Z,7.80
2018-10-02T02:28:10.362Z,7.90
2018-10-02T02:28:44.459Z,7.90
2018-10-02T02:29:18.600Z,7.90
2018-10-02T02:29:52.730Z,7.90
2018-10-02T02:30:26.864Z,7.90
2018-10-02T02:31:01.034Z,8.00
2018-10-02T02:31:35.172Z,8.00
2018-10-02T02:32:09.332Z,8.00
2018-10-02T02:32:43.478Z,8.00
2018-10-02T02:33:17.596Z,8.00
2018-10-02T02:33:51.802Z,8.00
2018-10-02T02:34:26.279Z,8.00
2018-10-02T02:35:00.403Z,8.10
2018-10-02T02:35:34.513Z,8.10
2018-10-02T02:36:08.673Z,8.10
2018-10-02T02:36:42.799Z,8.10
2018-10-02T02:37:17.242Z,8.10
2018-10-02T02:37:51.700Z,8.10
2018-10-02T02:38:25.853Z,8.10
2018-10-02T02:38:59.981Z,8.10
2018-10-02T02:39:34.443Z,8.10
2018-10-02T02:40:08.783Z,8.10
2018-10-02T02:40:43.224Z,8.10
2018-10-02T02:41:17.347Z,8.10
2018-10-02T02:41:52.446Z,8.10
2018-10-02T02:42:26.302Z,8.10
2018-10-02T02:43:00.430Z,8.10
2018-10-02T02:43:34.918Z,8.10
2018-10-02T02:44:09.050Z,8.10
2018-10-02T02:44:43.204Z,8.10
2018-10-02T02:45:17.999Z,8.10
2018-10-02T02:45:52.140Z,8.10
2018-10-02T02:46:26.285Z,8.10
2018-10-02T02:47:05.816Z,8.10
2018-10-02T02:47:45.270Z,8.10
2018-10-02T02:48:24.758Z,8.10
2018-10-02T02:49:04.361Z,8.10
2018-10-02T02:49:44.320Z,8.10
2018-10-02T02:50:23.784Z,8.10
2018-10-02T02:52:00.948Z,8.10
2018-10-02T02:52:41.408Z,8.10
2018-10-02T02:53:17.971Z,8.00
2018-10-02T02:53:52.477Z,8.00
2018-10-02T02:54:26.639Z,8.00
2018-10-02T02:55:00.839Z,7.90
2018-10-02T02:55:36.111Z,7.90
2018-10-02T02:56:10.252Z,7.90
2018-10-02T02:56:44.384Z,7.90
2018-10-02T02:57:18.546Z,7.90
2018-10-02T02:57:53.014Z,7.90
2018-10-02T02:58:27.230Z,7.80
2018-10-02T02:59:01.834Z,7.80
2018-10-02T02:59:36.311Z,7.80
2018-10-02T03:00:11.455Z,7.80
2018-10-02T03:00:45.576Z,7.80
2018-10-02T03:01:19.724Z,7.70
2018-10-02T03:01:53.896Z,7.70
2018-10-02T03:02:28.008Z,7.70
2018-10-02T03:03:02.509Z,7.70
2018-10-02T03:03:36.976Z,7.70
2018-10-02T03:04:11.113Z,7.70
2018-10-02T03:04:45.255Z,7.70
2018-10-02T03:05:19.417Z,7.60
2018-10-02T03:05:53.553Z,7.60
2018-10-02T03:06:27.700Z,7.60
2018-10-02T03:07:02.164Z,7.60
2018-10-02T03:07:36.300Z,7.60
2018-10-02T03:08:10.472Z,7.60
2018-10-02T03:08:44.752Z,7.50
2018-10-02T03:09:18.904Z,7.50
2018-10-02T03:09:53.095Z,7.50
2018-10-02T03:10:27.233Z,7.50
2018-10-02T03:11:01.340Z,7.50
2018-10-02T03:11:35.803Z,7.50
2018-10-02T03:12:09.950Z,7.50
2018-10-02T03:12:44.105Z,7.50
2018-10-02T03:13:18.658Z,7.50
2018-10-02T03:13:52.770Z,7.40
2018-10-02T03:14:27.201Z,7.40
2018-10-02T03:15:01.573Z,7.40
2018-10-02T03:15:35.730Z,7.40
2018-10-02T03:16:10.332Z,7.40
2018-10-02T03:16:44.478Z,7.40
2018-10-02T03:17:18.600Z,7.40
2018-10-02T03:17:52.732Z,7.40
2018-10-02T03:18:26.895Z,7.40
2018-10-02T03:19:01.326Z,7.40
2018-10-02T03:19:35.487Z,7.30
2018-10-02T03:20:09.653Z,7.40
2018-10-02T03:20:43.807Z,7.30
2018-10-02T03:21:18.259Z,7.30
2018-10-02T03:21:52.500Z,7.30
2018-10-02T03:22:26.760Z,7.30
2018-10-02T03:23:00.875Z,7.30
2018-10-02T03:23:35.000Z,7.30
2018-10-02T03:24:09.172Z,7.20
2018-10-02T03:24:43.301Z,7.20
2018-10-02T03:25:17.527Z,7.20
2018-10-02T03:25:51.808Z,7.20
2018-10-02T03:26:26.252Z,7.20
2018-10-02T03:27:00.650Z,7.20
2018-10-02T03:27:34.802Z,7.20
2018-10-02T03:28:08.953Z,7.20
2018-10-02T03:28:43.396Z,7.10
2018-10-02T03:29:17.548Z,7.10
2018-10-02T03:29:51.754Z,7.20
2018-10-02T03:30:25.977Z,7.20
2018-10-02T03:31:00.137Z,7.10
2018-10-02T03:31:34.377Z,7.10
2018-10-02T03:32:09.021Z,7.10
2018-10-02T03:32:43.149Z,7.10
2018-10-02T03:33:17.290Z,7.10
2018-10-02T03:33:51.480Z,7.20
2018-10-02T03:34:25.609Z,7.20
2018-10-02T03:34:59.743Z,7.20
2018-10-02T03:35:33.854Z,7.20
2018-10-02T03:36:08.028Z,7.20
2018-10-02T03:36:42.537Z,7.20
2018-10-02T03:37:16.636Z,7.20
2018-10-02T03:37:51.097Z,7.30
2018-10-02T03:38:25.414Z,7.30
2018-10-02T03:38:59.903Z,7.30
2018-10-02T03:39:34.108Z,7.30
2018-10-02T03:40:08.417Z,7.30
2018-10-02T03:40:42.606Z,7.30
2018-10-02T03:41:16.988Z,7.30
2018-10-02T03:41:51.135Z,7.30
2018-10-02T03:42:25.339Z,7.30
2018-10-02T03:42:59.619Z,7.30
2018-10-02T03:43:33.827Z,7.40
2018-10-02T03:44:08.439Z,7.40
2018-10-02T03:44:42.636Z,7.40
2018-10-02T03:45:16.757Z,7.40
2018-10-02T03:45:50.938Z,7.40
2018-10-02T03:46:25.051Z,7.50
2018-10-02T03:46:59.873Z,7.50
2018-10-02T03:47:34.027Z,7.50
2018-10-02T03:48:54.294Z,7.50
2018-10-02T03:49:28.440Z,7.50
2018-10-02T03:50:02.948Z,7.60
2018-10-02T03:50:37.149Z,7.50
2018-10-02T03:51:11.896Z,7.50
2018-10-02T03:51:46.053Z,7.60
2018-10-02T03:52:20.517Z,7.60
2018-10-02T03:52:54.681Z,7.60
2018-10-02T03:53:28.883Z,7.60
2018-10-02T03:54:03.385Z,7.60
2018-10-02T03:54:37.588Z,7.60
2018-10-02T03:55:12.119Z,7.60
2018-10-02T03:55:46.613Z,7.60
2018-10-02T03:56:20.849Z,7.60
2018-10-02T03:56:55.467Z,7.60
2018-10-02T03:57:29.630Z,7.60
2018-10-02T03:58:03.829Z,7.60
2018-10-02T03:58:38.031Z,7.60
2018-10-02T03:59:12.237Z,7.60
2018-10-02T03:59:46.429Z,7.60
2018-10-02T04:00:20.621Z,7.60
2018-10-02T04:00:54.827Z,7.60
2018-10-02T04:01:28.995Z,7.60
2018-10-02T04:02:03.142Z,7.60
2018-10-02T04:02:37.380Z,7.60
2018-10-02T04:03:11.531Z,7.60
2018-10-02T04:03:45.669Z,7.60
2018-10-02T04:04:20.134Z,7.60
2018-10-02T04:04:54.257Z,7.60
2018-10-02T04:05:28.441Z,7.60
2018-10-02T04:06:02.625Z,7.60
2018-10-02T04:06:36.790Z,7.60
2018-10-02T04:07:10.960Z,7.60
2018-10-02T04:07:45.100Z,7.60
2018-10-02T04:08:19.290Z,7.50
2018-10-02T04:08:53.461Z,7.50
2018-10-02T04:09:27.628Z,7.50
2018-10-02T04:10:01.844Z,7.50
2018-10-02T04:10:36.562Z,7.50
2018-10-02T04:11:10.741Z,7.50
2018-10-02T04:11:44.985Z,7.50
2018-10-02T04:12:19.149Z,7.50
2018-10-02T04:12:53.296Z,7.50
2018-10-02T04:13:27.443Z,7.50
2018-10-02T04:14:01.585Z,7.50
2018-10-02T04:14:35.770Z,7.50
2018-10-02T04:15:10.280Z,7.50
2018-10-02T04:15:44.809Z,7.50
2018-10-02T04:16:19.000Z,7.50
2018-10-02T04:16:53.218Z,7.50
2018-10-02T04:17:27.367Z,7.50
2018-10-02T04:18:01.747Z,7.50
2018-10-02T04:18:35.914Z,7.50
2018-10-02T04:19:10.075Z,7.50
2018-10-02T04:19:44.215Z,7.50
2018-10-02T04:20:18.504Z,7.50
2018-10-02T04:20:52.656Z,7.50
2018-10-02T04:21:34.729Z,7.50
2018-10-02T04:22:08.901Z,7.50
2018-10-02T04:22:43.091Z,7.50
2018-10-02T04:23:17.260Z,7.50
2018-10-02T04:23:51.431Z,7.50
2018-10-02T04:24:25.595Z,7.50
2018-10-02T04:24:59.747Z,7.50
2018-10-02T04:25:34.167Z,7.50
2018-10-02T04:26:08.657Z,7.50
2018-10-02T04:26:42.856Z,7.50
2018-10-02T04:27:17.325Z,7.50
2018-10-02T04:27:51.503Z,7.50
2018-10-02T04:28:25.992Z,7.50
2018-10-02T04:29:00.712Z,7.50
2018-10-02T04:29:34.821Z,7.50
2018-10-02T04:30:09.017Z,7.50
2018-10-02T04:30:43.176Z,7.50
2018-10-02T04:31:17.356Z,7.50
2018-10-02T04:31:51.558Z,7.40
2018-10-02T04:32:26.077Z,7.50
2018-10-02T04:33:00.231Z,7.40
2018-10-02T04:33:34.758Z,7.40
2018-10-02T04:34:08.908Z,7.40
2018-10-02T04:34:43.309Z,7.40
2018-10-02T04:35:17.499Z,7.40
2018-10-02T04:35:51.839Z,7.40
2018-10-02T04:36:25.997Z,7.40
2018-10-02T04:37:00.387Z,7.40
2018-10-02T04:37:34.595Z,7.30
2018-10-02T04:38:09.167Z,7.30
2018-10-02T04:38:43.793Z,7.30
2018-10-02T04:39:18.009Z,7.40
2018-10-02T04:39:52.647Z,7.30
2018-10-02T04:40:27.152Z,7.30
2018-10-02T04:41:01.499Z,7.30
2018-10-02T04:41:36.072Z,7.30
2018-10-02T04:42:10.255Z,7.30
2018-10-02T04:42:44.426Z,7.30
2018-10-02T04:43:18.570Z,7.30
2018-10-02T04:43:52.817Z,7.30
2018-10-02T04:44:26.951Z,7.30
2018-10-02T04:45:01.785Z,7.30
2018-10-02T04:45:35.975Z,7.30
2018-10-02T04:46:10.113Z,7.30
2018-10-02T04:46:44.310Z,7.30
2018-10-02T04:47:18.949Z,7.30
2018-10-02T04:47:54.125Z,7.30
2018-10-02T04:48:28.308Z,7.30
2018-10-02T04:49:02.823Z,7.30
2018-10-02T04:49:37.327Z,7.30
2018-10-02T04:50:11.505Z,7.30
2018-10-02T04:50:45.616Z,7.30
2018-10-02T04:51:20.309Z,7.30
2018-10-02T04:51:54.429Z,7.30
2018-10-02T04:52:28.567Z,7.20
2018-10-02T04:53:02.773Z,7.20
2018-10-02T04:53:36.891Z,7.30
2018-10-02T04:54:11.049Z,7.20
2018-10-02T04:54:45.207Z,7.20
2018-10-02T04:55:19.346Z,7.20
2018-10-02T04:55:53.540Z,7.20
2018-10-02T04:56:27.898Z,7.20
2018-10-02T04:57:02.024Z,7.20
2018-10-02T04:57:36.169Z,7.20
2018-10-02T04:58:10.373Z,7.20
2018-10-02T04:58:44.541Z,7.10
2018-10-02T04:59:18.977Z,7.10
2018-10-02T04:59:53.149Z,7.10
2018-10-02T05:00:27.333Z,7.10
2018-10-02T05:01:01.831Z,7.10
2018-10-02T05:01:35.980Z,7.10
2018-10-02T05:02:10.194Z,7.00
2018-10-02T05:02:44.496Z,7.00
2018-10-02T05:03:18.743Z,7.00
2018-10-02T05:03:52.956Z,7.00
2018-10-02T05:04:27.050Z,7.00
2018-10-02T05:05:01.169Z,6.90
2018-10-02T05:05:35.646Z,6.90
2018-10-02T05:06:09.795Z,6.90
2018-10-02T05:06:43.931Z,6.90
2018-10-02T05:07:18.076Z,6.90
2018-10-02T05:07:52.249Z,6.90
2018-10-02T05:08:26.524Z,6.80
2018-10-02T05:09:00.790Z,6.80
2018-10-02T05:09:34.903Z,6.80
2018-10-02T05:10:09.056Z,6.80
2018-10-02T05:10:43.513Z,6.80
2018-10-02T05:11:17.664Z,6.80
2018-10-02T05:11:51.872Z,6.80
2018-10-02T05:12:26.136Z,6.80
2018-10-02T05:13:00.269Z,6.80
2018-10-02T05:13:34.441Z,6.80
2018-10-02T05:14:08.632Z,6.80
2018-10-02T05:14:42.970Z,6.80
2018-10-02T05:15:17.452Z,6.80
2018-10-02T05:15:51.654Z,6.80
2018-10-02T05:16:25.781Z,6.80
2018-10-02T05:16:59.935Z,6.80
2018-10-02T05:17:34.058Z,6.80
2018-10-02T05:18:08.224Z,6.80
2018-10-02T05:18:42.385Z,6.80
2018-10-02T05:19:16.519Z,6.80
2018-10-02T05:19:51.013Z,6.80
2018-10-02T05:20:25.145Z,6.80
2018-10-02T05:20:59.345Z,6.80
2018-10-02T05:21:33.449Z,6.80
2018-10-02T05:22:07.664Z,6.90
2018-10-02T05:22:41.824Z,6.80
2018-10-02T05:23:15.969Z,6.80
2018-10-02T05:23:50.125Z,6.90
2018-10-02T05:24:24.280Z,6.80
2018-10-02T05:24:58.784Z,6.80
2018-10-02T05:25:32.963Z,6.90
2018-10-02T05:26:07.442Z,6.80
2018-10-02T05:26:41.895Z,6.80
2018-10-02T05:27:16.480Z,6.90
2018-10-02T05:27:50.781Z,6.80
2018-10-02T05:28:25.120Z,6.80
2018-10-02T05:28:59.265Z,6.80
2018-10-02T05:29:33.689Z,6.80
2018-10-02T05:30:08.196Z,6.90
2018-10-02T05:30:42.340Z,6.90
2018-10-02T05:31:16.823Z,6.90
2018-10-02T05:31:50.946Z,6.90
2018-10-02T05:32:25.436Z,6.90
2018-10-02T05:33:01.903Z,6.90
2018-10-02T05:33:36.094Z,6.90
2018-10-02T05:34:10.394Z,6.90
2018-10-02T05:34:44.511Z,6.90
2018-10-02T05:35:18.905Z,6.90
2018-10-02T05:35:53.164Z,6.90
2018-10-02T05:36:27.300Z,6.90
2018-10-02T05:37:01.417Z,6.90
2018-10-02T05:37:35.549Z,6.90
2018-10-02T05:38:09.689Z,6.90
2018-10-02T05:38:43.818Z,6.90
2018-10-02T05:39:17.982Z,6.90
2018-10-02T05:39:52.462Z,6.90
2018-10-02T05:40:26.590Z,6.90
2018-10-02T05:41:01.389Z,6.90
2018-10-02T05:41:35.522Z,7.00
2018-10-02T05:42:09.746Z,6.90
2018-10-02T05:42:43.962Z,6.90
2018-10-02T05:43:18.302Z,7.00
2018-10-02T05:43:52.466Z,7.00
2018-10-02T05:44:26.619Z,7.00
2018-10-02T05:45:00.737Z,7.00
2018-10-02T05:45:35.173Z,7.00
2018-10-02T05:46:10.120Z,7.00
2018-10-02T05:46:44.316Z,7.10
2018-10-02T05:47:18.792Z,7.10
2018-10-02T05:47:52.934Z,7.10
2018-10-02T05:48:27.418Z,7.10
2018-10-02T05:49:01.564Z,7.10
2018-10-02T05:49:35.740Z,7.10
2018-10-02T05:50:09.864Z,7.10
2018-10-02T05:50:44.142Z,7.20
2018-10-02T05:51:18.455Z,7.20
2018-10-02T05:51:52.878Z,7.20
2018-10-02T05:52:27.020Z,7.20
2018-10-02T05:53:01.142Z,7.20
2018-10-02T05:53:35.313Z,7.20
2018-10-02T05:54:09.488Z,7.30
2018-10-02T05:54:43.642Z,7.30
2018-10-02T05:55:17.818Z,7.30
2018-10-02T05:55:52.127Z,7.30
2018-10-02T05:56:26.306Z,7.40
2018-10-02T05:57:00.436Z,7.40
2018-10-02T05:57:35.194Z,7.40
2018-10-02T05:58:09.340Z,7.40
2018-10-02T05:58:43.487Z,7.50
2018-10-02T05:59:17.570Z,7.50
2018-10-02T05:59:51.770Z,7.50
2018-10-02T06:00:25.906Z,7.50
2018-10-02T06:01:00.056Z,7.50
2018-10-02T06:01:34.232Z,7.50
2018-10-02T06:02:08.750Z,7.60
2018-10-02T06:02:43.106Z,7.60
2018-10-02T06:03:17.248Z,7.60
2018-10-02T06:03:51.459Z,7.60
2018-10-02T06:04:25.817Z,7.70
2018-10-02T06:04:59.994Z,7.70
2018-10-02T06:05:34.156Z,7.70
2018-10-02T06:06:08.335Z,7.70
2018-10-02T06:06:42.518Z,7.70
2018-10-02T06:07:16.770Z,7.70
2018-10-02T06:07:50.982Z,7.70
2018-10-02T06:08:25.142Z,7.70
2018-10-02T06:08:59.326Z,7.70
2018-10-02T06:09:33.444Z,7.70
2018-10-02T06:10:08.786Z,7.80
2018-10-02T06:10:42.968Z,7.70
2018-10-02T06:11:17.118Z,7.70
2018-10-02T06:11:51.272Z,7.70
2018-10-02T06:12:25.460Z,7.80
2018-10-02T06:12:59.578Z,7.80
2018-10-02T06:13:33.800Z,7.80
2018-10-02T06:14:08.252Z,7.80
2018-10-02T06:14:42.402Z,7.80
2018-10-02T06:15:16.584Z,7.70
2018-10-02T06:15:50.722Z,7.70
2018-10-02T06:16:24.892Z,7.70
2018-10-02T06:16:59.035Z,7.70
2018-10-02T06:17:33.498Z,7.70
2018-10-02T06:18:07.746Z,7.70
2018-10-02T06:18:42.482Z,7.70
2018-10-02T06:19:16.802Z,7.70
2018-10-02T06:19:50.936Z,7.70
2018-10-02T06:20:25.108Z,7.70
2018-10-02T06:20:59.244Z,7.70
2018-10-02T06:21:33.398Z,7.70
2018-10-02T06:22:07.882Z,7.70
2018-10-02T06:22:42.048Z,7.70
2018-10-02T06:23:16.840Z,7.70
2018-10-02T06:23:50.994Z,7.70
2018-10-02T06:24:25.507Z,7.70
2018-10-02T06:24:59.678Z,7.70
2018-10-02T06:25:33.824Z,7.70
2018-10-02T06:26:07.968Z,7.70
2018-10-02T06:26:42.450Z,7.70
2018-10-02T06:27:16.890Z,7.70
2018-10-02T06:27:51.051Z,7.70
2018-10-02T06:28:25.240Z,7.70
2018-10-02T06:28:59.416Z,7.70
2018-10-02T06:29:34.008Z,7.80
2018-10-02T06:30:08.214Z,7.70
2018-10-02T06:30:42.456Z,7.80
2018-10-02T06:31:16.612Z,7.80
2018-10-02T06:31:50.782Z,7.80
2018-10-02T06:32:24.899Z,7.80
2018-10-02T06:32:59.078Z,7.80
2018-10-02T06:33:33.212Z,7.80
2018-10-02T06:34:08.108Z,7.90
2018-10-02T06:34:42.274Z,7.90
2018-10-02T06:35:16.443Z,7.90
2018-10-02T06:35:50.640Z,7.90
2018-10-02T06:36:25.146Z,7.90
2018-10-02T06:36:59.966Z,7.90
2018-10-02T06:37:34.091Z,8.00
2018-10-02T06:38:08.323Z,8.00
2018-10-02T06:38:42.649Z,8.00
2018-10-02T06:39:16.806Z,8.10
2018-10-02T06:39:50.993Z,8.10
2018-10-02T06:40:25.135Z,8.10
2018-10-02T06:40:59.526Z,8.20
2018-10-02T06:41:33.738Z,8.20
2018-10-02T06:42:07.894Z,8.30
2018-10-02T06:42:42.073Z,8.30
2018-10-02T06:43:16.206Z,8.30
2018-10-02T06:43:50.411Z,8.40
2018-10-02T06:44:24.738Z,8.40
2018-10-02T06:44:59.408Z,8.50
2018-10-02T06:45:33.810Z,8.50
2018-10-02T06:46:07.948Z,8.50
2018-10-02T06:46:42.110Z,8.60
2018-10-02T06:47:16.266Z,8.60
2018-10-02T06:47:50.520Z,8.60
2018-10-02T06:48:24.731Z,8.60
2018-10-02T06:48:58.887Z,8.70
2018-10-02T06:49:33.052Z,8.70
2018-10-02T06:50:07.534Z,8.70
2018-10-02T06:50:41.765Z,8.80
2018-10-02T06:51:16.515Z,8.80
2018-10-02T06:51:50.832Z,8.80
2018-10-02T06:52:25.340Z,8.90
2018-10-02T06:52:59.518Z,8.90
2018-10-02T06:53:33.712Z,8.90
2018-10-02T06:54:07.892Z,8.90
2018-10-02T06:54:42.026Z,8.90
2018-10-02T06:55:16.160Z,9.00
2018-10-02T06:55:50.462Z,9.00
2018-10-02T06:56:24.679Z,9.10
2018-10-02T06:56:59.012Z,9.00
2018-10-02T06:57:33.326Z,9.00
2018-10-02T06:58:07.782Z,9.00
2018-10-02T06:58:42.296Z,9.00
2018-10-02T06:59:16.442Z,9.00
2018-10-02T06:59:50.562Z,9.00
2018-10-02T07:00:25.064Z,9.00
2018-10-02T07:00:59.372Z,9.00
2018-10-02T07:01:34.454Z,9.00
2018-10-02T07:02:08.578Z,8.90
2018-10-02T07:02:42.791Z,8.90
2018-10-02T07:08:20.777Z,8.90
2018-10-02T07:08:54.931Z,8.90
2018-10-02T07:09:29.265Z,8.90
2018-10-02T07:10:03.362Z,8.90
2018-10-02T07:10:37.528Z,8.90
2018-10-02T07:11:11.674Z,8.90
2018-10-02T07:11:46.504Z,8.90
2018-10-02T07:12:21.036Z,8.90
2018-10-02T07:12:55.298Z,9.00
2018-10-02T07:13:29.645Z,9.00
2018-10-02T07:14:04.128Z,9.10
2018-10-02T07:14:38.416Z,9.10
2018-10-02T07:15:13.353Z,9.10
2018-10-02T07:15:47.511Z,9.20
2018-10-02T07:16:21.736Z,9.20
2018-10-02T07:16:55.899Z,9.30
2018-10-02T07:17:30.101Z,9.30
2018-10-02T07:18:04.394Z,9.30
2018-10-02T07:18:38.516Z,9.30
2018-10-02T07:19:12.650Z,9.30
2018-10-02T07:19:47.116Z,9.30
2018-10-02T07:20:21.610Z,9.40
2018-10-02T07:20:55.787Z,9.30
2018-10-02T07:21:30.084Z,9.40
2018-10-02T07:22:04.724Z,9.40
2018-10-02T07:22:39.182Z,9.40
2018-10-02T07:23:13.350Z,9.30
2018-10-02T07:23:47.482Z,9.30
2018-10-02T07:24:22.095Z,9.30
2018-10-02T07:24:56.567Z,9.30
2018-10-02T07:25:30.730Z,9.20
2018-10-02T07:26:04.849Z,9.30
2018-10-02T07:26:39.403Z,9.20
2018-10-02T07:27:14.177Z,9.20
2018-10-02T07:27:48.647Z,9.20
2018-10-02T07:28:23.142Z,9.20
2018-10-02T07:28:57.470Z,9.20
2018-10-02T07:29:31.620Z,9.10
2018-10-02T07:30:05.802Z,9.10
2018-10-02T07:30:39.972Z,9.10
2018-10-02T07:31:14.301Z,9.10
2018-10-02T07:31:48.165Z,9.00
2018-10-02T07:32:22.357Z,9.00
2018-10-02T07:32:56.741Z,9.00
2018-10-02T07:33:31.113Z,9.00
2018-10-02T07:34:05.286Z,9.00
2018-10-02T07:34:39.436Z,8.90
2018-10-02T07:35:13.921Z,8.90
2018-10-02T07:35:48.071Z,8.90
2018-10-02T07:36:22.257Z,8.90
2018-10-02T07:36:56.460Z,8.90
2018-10-02T07:37:30.824Z,8.90
2018-10-02T07:38:05.050Z,8.80
2018-10-02T07:38:39.576Z,8.80
2018-10-02T07:39:14.005Z,8.80
2018-10-02T07:39:48.153Z,8.80
2018-10-02T07:40:22.318Z,8.80
2018-10-02T07:40:56.449Z,8.80
2018-10-02T07:41:30.611Z,8.80
2018-10-02T07:42:05.188Z,8.80
2018-10-02T07:42:39.486Z,8.80
2018-10-02T07:43:13.661Z,8.80
2018-10-02T07:43:47.810Z,8.80
2018-10-02T07:44:21.971Z,8.80